createdAt,value
2023-05-05T00:01:22.229Z,99.90
2023-05-05T00:03:48.980Z,99.90
2023-05-05T00:06:15.814Z,99.90
2023-05-05T00:08:42.443Z,99.90
2023-05-05T00:11:09.774Z,99.90
2023-05-05T00:13:36.358Z,99.90
2023-05-05T00:16:03.261Z,99.90
2023-05-05T00:18:29.889Z,99.90
2023-05-05T00:20:56.495Z,99.90
2023-05-05T00:23:23.159Z,99.90
2023-05-05T00:25:49.770Z,99.90
2023-05-05T00:28:17.135Z,99.90
2023-05-05T00:30:43.858Z,99.90
2023-05-05T00:33:10.712Z,99.90
2023-05-05T00:35:37.446Z,99.90
2023-05-05T00:38:04.398Z,99.90
2023-05-05T00:40:31.148Z,99.90
2023-05-05T00:42:58.849Z,99.90
2023-05-05T00:45:26.322Z,99.90
2023-05-05T00:47:56.496Z,99.90
2023-05-05T00:50:24.898Z,99.90
2023-05-05T00:52:53.859Z,99.90
2023-05-05T00:55:21.002Z,99.90
2023-05-05T00:57:48.447Z,99.90
2023-05-05T01:00:15.930Z,99.90
2023-05-05T01:02:44.418Z,99.90
2023-05-05T01:05:13.017Z,99.90
2023-05-05T01:07:50.457Z,99.90
2023-05-05T01:10:25.429Z,99.90
2023-05-05T01:13:01.987Z,99.90
2023-05-05T01:15:33.043Z,99.90
2023-05-05T01:18:08.097Z,99.90
2023-05-05T01:20:41.205Z,99.90
2023-05-05T01:23:09.700Z,99.90
2023-05-05T01:26:08.815Z,99.90
2023-05-05T01:28:54.970Z,99.90
2023-05-05T01:31:39.872Z,99.90
2023-05-05T01:34:09.724Z,99.90
2023-05-05T01:36:39.042Z,99.90
2023-05-05T01:39:11.876Z,99.90
2023-05-05T01:41:42.731Z,99.90
2023-05-05T01:44:11.540Z,99.90
2023-05-05T01:46:39.065Z,99.90
2023-05-05T01:49:06.821Z,99.90
2023-05-05T01:51:35.163Z,99.90
2023-05-05T01:54:07.037Z,99.90
2023-05-05T01:56:34.219Z,99.90
2023-05-05T01:59:01.492Z,99.90
2023-05-05T02:01:30.048Z,99.90
2023-05-05T02:03:59.054Z,99.90
2023-05-05T02:06:28.465Z,99.90
2023-05-05T02:08:57.642Z,99.90
2023-05-05T02:11:26.274Z,99.90
2023-05-05T02:13:54.231Z,99.90
2023-05-05T02:16:23.114Z,99.90
2023-05-05T02:18:50.515Z,99.90
2023-05-05T02:21:18.114Z,99.90
2023-05-05T02:23:47.478Z,99.90
2023-05-05T02:26:16.240Z,99.90
2023-05-05T02:28:47.957Z,99.90
2023-05-05T02:31:16.853Z,99.90
2023-05-05T02:33:45.372Z,99.90
2023-05-05T02:36:17.818Z,99.90
2023-05-05T02:38:46.984Z,99.90
2023-05-05T02:41:17.798Z,99.90
2023-05-05T02:43:46.028Z,99.90
2023-05-05T02:46:12.641Z,99.90
2023-05-05T02:48:39.401Z,99.90
2023-05-05T02:51:07.006Z,99.90
2023-05-05T02:53:34.855Z,99.90
2023-05-05T02:56:10.479Z,99.90
2023-05-05T02:58:45.946Z,99.90
2023-05-05T03:01:26.340Z,99.90
2023-05-05T03:04:02.878Z,99.90
2023-05-05T03:06:32.366Z,99.90
2023-05-05T03:09:06.687Z,99.90
2023-05-05T03:11:38.180Z,99.90
2023-05-05T03:14:08.970Z,99.90
2023-05-05T03:16:36.575Z,99.90
2023-05-05T03:19:04.224Z,99.90
2023-05-05T03:21:32.504Z,99.90
2023-05-05T03:23:59.331Z,99.90
2023-05-05T03:26:26.076Z,99.90
2023-05-05T03:28:53.315Z,99.90
2023-05-05T03:31:20.436Z,99.90
2023-05-05T03:33:47.104Z,99.90
2023-05-05T03:36:13.774Z,99.90
2023-05-05T03:38:40.506Z,99.90
2023-05-05T03:41:07.152Z,99.90
2023-05-05T03:43:33.841Z,99.90
2023-05-05T03:46:01.244Z,99.90
2023-05-05T03:48:28.080Z,99.90
2023-05-05T03:50:54.689Z,99.90
2023-05-05T03:53:21.378Z,99.90
2023-05-05T03:55:48.151Z,99.90
2023-05-05T03:58:14.820Z,99.90
2023-05-05T04:00:41.559Z,99.90
2023-05-05T04:03:09.119Z,99.90
2023-05-05T04:05:35.963Z,99.90
2023-05-05T04:08:02.863Z,99.90
2023-05-05T04:10:29.936Z,99.90
2023-05-05T04:12:56.681Z,99.90
2023-05-05T04:15:23.557Z,99.90
2023-05-05T04:17:50.230Z,99.90
2023-05-05T04:20:17.619Z,99.90
2023-05-05T04:22:44.350Z,99.90
2023-05-05T04:25:11.045Z,99.90
2023-05-05T04:27:37.678Z,99.90
2023-05-05T04:30:05.288Z,99.90
2023-05-05T04:32:32.262Z,99.90
2023-05-05T04:34:58.989Z,99.90
2023-05-05T04:37:26.609Z,99.90
2023-05-05T04:39:53.366Z,99.90
2023-05-05T04:42:19.974Z,99.90
2023-05-05T04:44:46.556Z,99.90
2023-05-05T04:47:14.648Z,99.90
2023-05-05T04:49:41.466Z,99.90
2023-05-05T04:52:08.029Z,99.90
2023-05-05T04:54:36.221Z,99.90
2023-05-05T04:57:03.358Z,99.90
2023-05-05T04:59:30.104Z,99.90
2023-05-05T05:01:56.722Z,99.90
2023-05-05T05:04:25.158Z,99.90
2023-05-05T05:06:52.036Z,99.90
2023-05-05T05:09:18.650Z,99.90
2023-05-05T05:11:46.020Z,99.90
2023-05-05T05:14:12.625Z,99.90
2023-05-05T05:16:39.338Z,99.90
2023-05-05T05:19:05.981Z,99.90
2023-05-05T05:21:32.871Z,99.90
2023-05-05T05:23:59.519Z,99.90
2023-05-05T05:26:26.728Z,99.90
2023-05-05T05:28:54.031Z,99.90
2023-05-05T05:31:20.994Z,99.90
2023-05-05T05:33:47.642Z,99.90
2023-05-05T05:36:14.285Z,99.90
2023-05-05T05:38:40.901Z,99.90
2023-05-05T05:41:07.498Z,99.90
2023-05-05T05:43:34.071Z,99.90
2023-05-05T05:46:01.444Z,99.90
2023-05-05T05:48:28.782Z,99.90
2023-05-05T05:50:56.284Z,99.90
2023-05-05T05:53:24.518Z,99.90
2023-05-05T05:55:51.086Z,99.90
2023-05-05T05:58:17.797Z,99.90
2023-05-05T06:00:45.020Z,99.90
2023-05-05T06:03:12.486Z,99.90
2023-05-05T06:05:39.248Z,99.90
2023-05-05T06:08:06.016Z,99.90
2023-05-05T06:10:32.901Z,99.90
2023-05-05T06:12:59.858Z,99.60
2023-05-05T06:15:26.511Z,98.70
2023-05-05T06:17:53.190Z,98.10
2023-05-05T06:20:20.525Z,98.10
2023-05-05T06:22:47.081Z,97.80
2023-05-05T06:25:13.787Z,97.50
2023-05-05T06:27:40.417Z,97.40
2023-05-05T06:30:08.988Z,97.30
2023-05-05T06:32:35.950Z,97.00
2023-05-05T06:35:02.662Z,97.60
2023-05-05T06:37:29.970Z,97.90
2023-05-05T06:39:56.572Z,97.30
2023-05-05T06:42:23.321Z,97.20
2023-05-05T06:44:49.959Z,97.10
2023-05-05T06:47:16.632Z,96.70
2023-05-05T06:49:43.202Z,96.30
2023-05-05T06:52:09.909Z,96.00
2023-05-05T06:54:37.193Z,95.80
2023-05-05T06:57:03.951Z,95.90
2023-05-05T06:59:30.528Z,95.60
2023-05-05T07:01:57.154Z,95.70
2023-05-05T07:04:23.810Z,95.70
2023-05-05T07:06:50.389Z,95.10
2023-05-05T07:09:17.974Z,95.10
2023-05-05T07:11:45.653Z,95.30
2023-05-05T07:14:12.407Z,94.80
2023-05-05T07:16:39.286Z,94.80
2023-05-05T07:19:05.962Z,95.60
2023-05-05T07:21:33.292Z,95.00
2023-05-05T07:24:00.470Z,95.10
2023-05-05T07:26:27.274Z,95.60
2023-05-05T07:28:55.455Z,95.80
2023-05-05T07:31:22.629Z,95.40
2023-05-05T07:33:49.309Z,95.20
2023-05-05T07:36:17.086Z,95.60
2023-05-05T07:38:43.674Z,95.10
2023-05-05T07:41:12.188Z,95.30
2023-05-05T07:43:41.253Z,95.30
2023-05-05T07:46:09.550Z,95.50
2023-05-05T07:48:36.336Z,95.60
2023-05-05T07:51:03.081Z,95.40
2023-05-05T07:53:30.189Z,95.10
2023-05-05T07:55:56.784Z,94.60
2023-05-05T07:58:23.482Z,94.70
2023-05-05T08:00:50.556Z,94.70
2023-05-05T08:03:19.838Z,94.70
2023-05-05T08:05:46.524Z,94.00
2023-05-05T08:08:13.205Z,93.90
2023-05-05T08:10:39.863Z,94.20
2023-05-05T08:13:07.739Z,94.20
2023-05-05T08:15:34.465Z,93.90
2023-05-05T08:18:01.157Z,94.40
2023-05-05T08:20:29.225Z,94.20
2023-05-05T08:22:55.993Z,94.10
2023-05-05T08:25:22.644Z,94.00
2023-05-05T08:27:49.281Z,94.00
2023-05-05T08:30:20.016Z,93.90
2023-05-05T08:32:46.706Z,94.00
2023-05-05T08:35:13.549Z,93.90
2023-05-05T08:37:41.131Z,93.60
2023-05-05T08:40:11.099Z,93.20
2023-05-05T08:42:39.482Z,93.10
2023-05-05T08:45:08.139Z,93.80
2023-05-05T08:47:36.456Z,93.60
2023-05-05T08:50:04.995Z,93.10
2023-05-05T08:52:38.971Z,92.90
2023-05-05T08:55:13.051Z,92.90
2023-05-05T08:57:50.116Z,93.20
2023-05-05T09:00:19.555Z,92.80
2023-05-05T09:02:47.084Z,92.30
2023-05-05T09:05:13.904Z,92.50
2023-05-05T09:07:42.915Z,92.60
2023-05-05T09:10:11.523Z,92.50
2023-05-05T09:12:40.649Z,92.10
2023-05-05T09:15:09.015Z,92.30
2023-05-05T09:17:36.213Z,92.20
2023-05-05T09:20:04.512Z,91.80
2023-05-05T09:22:36.513Z,91.60
2023-05-05T09:25:03.835Z,91.50
2023-05-05T09:27:35.102Z,91.80
2023-05-05T09:30:02.611Z,91.90
2023-05-05T09:32:30.994Z,91.10
2023-05-05T09:34:58.588Z,91.90
2023-05-05T09:37:28.653Z,91.40
2023-05-05T09:39:55.798Z,91.40
2023-05-05T09:42:22.399Z,91.10
2023-05-05T09:44:50.814Z,91.00
2023-05-05T09:47:28.892Z,90.80
2023-05-05T09:49:58.182Z,90.60
2023-05-05T09:52:24.845Z,91.00
2023-05-05T09:54:55.579Z,91.40
2023-05-05T09:57:29.330Z,91.10
2023-05-05T09:59:58.191Z,90.90
2023-05-05T10:02:32.583Z,91.00
2023-05-05T10:05:10.136Z,91.00
2023-05-05T10:07:37.618Z,91.00
2023-05-05T10:10:06.431Z,90.40
2023-05-05T10:12:36.095Z,90.00
2023-05-05T10:15:04.914Z,90.10
2023-05-05T10:17:35.413Z,90.30
2023-05-05T10:20:03.590Z,90.60
2023-05-05T10:22:36.390Z,90.40
2023-05-05T10:25:08.949Z,90.10
2023-05-05T10:27:42.142Z,89.60
2023-05-05T10:30:16.467Z,90.30
2023-05-05T10:32:57.344Z,90.40
2023-05-05T10:35:36.876Z,90.20
2023-05-05T10:38:07.344Z,95.30
2023-05-05T10:40:34.312Z,89.80
2023-05-05T10:43:01.101Z,88.40
2023-05-05T10:45:28.700Z,89.10
2023-05-05T10:47:58.632Z,88.50
2023-05-05T10:50:32.999Z,88.60
2023-05-05T10:53:12.032Z,88.20
2023-05-05T10:55:44.115Z,88.20
2023-05-05T10:58:31.648Z,88.40
2023-05-05T11:00:58.960Z,88.20
2023-05-05T11:03:26.170Z,88.10
2023-05-05T11:06:11.860Z,88.30
2023-05-05T11:08:40.241Z,86.90
2023-05-05T11:11:07.497Z,86.90
2023-05-05T11:13:34.169Z,87.10
2023-05-05T11:16:01.697Z,85.50
2023-05-05T11:18:35.030Z,86.50
2023-05-05T11:21:15.847Z,85.20
2023-05-05T11:23:47.212Z,85.60
2023-05-05T11:26:15.683Z,85.60
2023-05-05T11:28:57.481Z,85.20
2023-05-05T11:31:25.097Z,84.60
2023-05-05T11:33:52.221Z,84.10
2023-05-05T11:36:20.202Z,83.50
2023-05-05T11:39:02.038Z,83.20
2023-05-05T11:41:52.225Z,83.50
2023-05-05T11:44:20.379Z,82.80
2023-05-05T11:47:20.506Z,84.60
2023-05-05T11:49:50.141Z,83.30
2023-05-05T11:52:16.800Z,84.30
2023-05-05T11:54:46.935Z,83.90
2023-05-05T11:57:14.371Z,83.00
2023-05-05T11:59:52.486Z,83.10
2023-05-05T12:02:19.645Z,82.30
2023-05-05T12:04:47.329Z,81.80
2023-05-05T12:07:18.362Z,81.10
2023-05-05T12:09:46.527Z,80.90
2023-05-05T12:12:14.382Z,81.00
2023-05-05T12:14:51.076Z,79.40
2023-05-05T12:17:19.251Z,79.50
2023-05-05T12:19:50.571Z,79.70
2023-05-05T12:22:22.598Z,78.30
2023-05-05T12:24:56.538Z,77.50
2023-05-05T12:27:23.655Z,78.10
2023-05-05T12:29:50.641Z,77.50
2023-05-05T12:32:21.732Z,77.90
2023-05-05T12:34:50.066Z,77.80
2023-05-05T12:37:18.361Z,78.30
2023-05-05T12:39:45.106Z,78.00
2023-05-05T12:42:11.754Z,77.40
2023-05-05T12:44:39.544Z,79.10
2023-05-05T12:47:06.779Z,76.10
2023-05-05T12:49:45.217Z,76.30
2023-05-05T12:52:11.819Z,76.10
2023-05-05T12:54:54.888Z,75.40
2023-05-05T12:57:22.072Z,75.80
2023-05-05T12:59:48.937Z,75.80
2023-05-05T13:02:16.264Z,76.70
2023-05-05T13:04:50.368Z,76.50
2023-05-05T13:07:18.978Z,75.60
2023-05-05T13:09:46.769Z,74.90
2023-05-05T13:12:14.312Z,75.10
2023-05-05T13:14:41.293Z,74.90
2023-05-05T13:17:07.898Z,74.00
2023-05-05T13:19:40.852Z,75.30
2023-05-05T13:22:08.418Z,74.60
2023-05-05T13:24:49.951Z,74.90
2023-05-05T13:27:19.808Z,74.40
2023-05-05T13:29:46.471Z,74.00
2023-05-05T13:32:13.178Z,75.20
2023-05-05T13:34:39.833Z,75.40
2023-05-05T13:37:06.636Z,74.20
2023-05-05T13:39:33.428Z,73.60
2023-05-05T13:42:00.113Z,74.10
2023-05-05T13:44:27.407Z,73.30
2023-05-05T13:46:54.067Z,73.70
2023-05-05T13:49:20.759Z,72.70
2023-05-05T13:51:47.574Z,73.10
2023-05-05T13:54:14.266Z,73.00
2023-05-05T13:56:41.002Z,72.10
2023-05-05T13:59:07.692Z,73.00
2023-05-05T14:01:35.233Z,71.80
2023-05-05T14:04:05.201Z,68.00
2023-05-05T14:06:32.816Z,63.90
2023-05-05T14:08:59.564Z,60.40
2023-05-05T14:11:26.287Z,57.70
2023-05-05T14:13:53.407Z,56.20
2023-05-05T14:16:20.226Z,55.30
2023-05-05T14:18:47.684Z,54.60
2023-05-05T14:21:14.276Z,53.40
2023-05-05T14:23:41.141Z,52.10
2023-05-05T14:26:08.422Z,52.70
2023-05-05T14:28:35.115Z,52.00
2023-05-05T14:31:01.803Z,51.90
2023-05-05T14:33:28.517Z,50.10
2023-05-05T14:35:56.197Z,50.00
2023-05-05T14:38:22.944Z,48.90
2023-05-05T14:40:49.620Z,49.00
2023-05-05T14:43:16.374Z,48.70
2023-05-05T14:45:43.617Z,49.00
2023-05-05T14:48:10.505Z,49.00
2023-05-05T14:50:37.887Z,49.30
2023-05-05T14:53:05.309Z,49.60
2023-05-05T14:55:32.230Z,49.60
2023-05-05T14:57:59.048Z,49.20
2023-05-05T15:00:26.164Z,49.90
2023-05-05T15:02:52.800Z,51.50
2023-05-05T15:05:19.557Z,54.60
2023-05-05T15:07:46.254Z,55.10
2023-05-05T15:10:13.522Z,56.20
2023-05-05T15:12:41.473Z,57.00
2023-05-05T15:15:08.990Z,57.50
2023-05-05T15:17:36.709Z,57.30
2023-05-05T15:20:04.793Z,56.90
2023-05-05T15:22:31.557Z,56.90
2023-05-05T15:24:58.948Z,56.70
2023-05-05T15:27:26.335Z,56.70
2023-05-05T15:29:53.723Z,55.80
2023-05-05T15:32:20.592Z,55.30
2023-05-05T15:34:49.005Z,54.90
2023-05-05T15:37:16.893Z,54.70
2023-05-05T15:39:43.453Z,53.90
2023-05-05T15:42:10.054Z,54.40
2023-05-05T15:44:37.379Z,53.90
2023-05-05T15:47:04.254Z,54.70
2023-05-05T15:49:30.935Z,56.20
2023-05-05T15:51:57.693Z,57.70
2023-05-05T15:54:24.526Z,59.40
2023-05-05T15:56:51.118Z,60.40
2023-05-05T15:59:19.021Z,60.90
2023-05-05T16:01:46.875Z,61.90
2023-05-05T16:04:13.866Z,63.00
2023-05-05T16:06:40.725Z,64.00
2023-05-05T16:09:07.375Z,65.00
2023-05-05T16:11:34.262Z,66.70
2023-05-05T16:14:00.904Z,67.00
2023-05-05T16:16:27.519Z,67.60
2023-05-05T16:18:54.950Z,68.50
2023-05-05T16:21:21.604Z,69.20
2023-05-05T16:23:48.216Z,69.40
2023-05-05T16:26:14.934Z,69.50
2023-05-05T16:28:41.537Z,69.70
2023-05-05T16:31:09.848Z,70.50
2023-05-05T16:33:39.988Z,71.00
2023-05-05T16:36:09.520Z,71.40
2023-05-05T16:38:36.117Z,71.50
2023-05-05T16:41:02.988Z,72.20
2023-05-05T16:43:29.796Z,72.20
2023-05-05T16:45:56.431Z,72.80
2023-05-05T16:48:23.064Z,72.90
2023-05-05T16:50:49.887Z,73.60
2023-05-05T16:53:17.173Z,74.30
2023-05-05T16:55:43.872Z,74.80
2023-05-05T16:58:10.452Z,75.00
2023-05-05T17:00:37.077Z,75.80
2023-05-05T17:03:03.829Z,76.20
2023-05-05T17:05:30.482Z,76.50
2023-05-05T17:07:57.187Z,77.00
2023-05-05T17:10:24.681Z,77.10
2023-05-05T17:12:51.326Z,77.20
2023-05-05T17:15:18.222Z,77.40
2023-05-05T17:17:44.891Z,78.10
2023-05-05T17:20:12.352Z,78.00
2023-05-05T17:22:39.001Z,77.80
2023-05-05T17:25:06.791Z,78.10
2023-05-05T17:27:34.171Z,78.60
2023-05-05T17:30:00.807Z,78.50
2023-05-05T17:32:27.426Z,78.90
2023-05-05T17:34:54.105Z,79.70
2023-05-05T17:37:20.776Z,79.60
2023-05-05T17:39:47.422Z,80.00
2023-05-05T17:42:15.932Z,80.30
2023-05-05T17:44:43.301Z,81.10
2023-05-05T17:47:09.924Z,81.60
2023-05-05T17:49:36.623Z,82.20
2023-05-05T17:52:03.666Z,82.80
2023-05-05T17:54:30.478Z,83.60
2023-05-05T17:56:57.088Z,84.10
2023-05-05T17:59:23.744Z,84.70
2023-05-05T18:01:51.001Z,85.30
2023-05-05T18:04:17.670Z,85.40
2023-05-05T18:06:44.300Z,86.00
2023-05-05T18:09:11.447Z,86.50
2023-05-05T18:11:38.062Z,86.40
2023-05-05T18:14:04.722Z,86.70
2023-05-05T18:16:31.649Z,87.10
2023-05-05T18:18:58.983Z,87.70
2023-05-05T18:21:26.210Z,88.10
2023-05-05T18:23:54.387Z,88.60
2023-05-05T18:26:24.107Z,89.40
2023-05-05T18:28:50.718Z,89.00
2023-05-05T18:31:17.456Z,89.20
2023-05-05T18:33:46.066Z,89.80
2023-05-05T18:36:15.376Z,89.90
2023-05-05T18:38:41.985Z,90.10
2023-05-05T18:41:08.607Z,90.00
2023-05-05T18:43:35.183Z,90.30
2023-05-05T18:46:01.806Z,90.40
2023-05-05T18:48:29.401Z,90.50
2023-05-05T18:51:01.082Z,90.60
2023-05-05T18:53:29.480Z,90.80
2023-05-05T18:55:56.328Z,90.80
2023-05-05T18:58:23.676Z,91.00
2023-05-05T19:00:50.543Z,91.00
2023-05-05T19:03:17.316Z,91.00
2023-05-05T19:05:43.916Z,90.90
2023-05-05T19:08:10.523Z,91.10
2023-05-05T19:10:38.068Z,91.80
2023-05-05T19:13:04.988Z,91.30
2023-05-05T19:17:59.058Z,91.10
2023-05-05T19:20:25.857Z,91.30
2023-05-05T19:25:19.792Z,91.20
2023-05-05T19:27:47.163Z,91.50
2023-05-05T19:30:14.068Z,91.60
2023-05-05T19:32:40.735Z,91.60
2023-05-05T19:35:09.672Z,91.60
2023-05-05T19:40:04.567Z,91.60
2023-05-05T19:42:31.251Z,91.90
2023-05-05T19:44:58.548Z,91.90
2023-05-05T19:49:52.377Z,92.60
2023-05-05T19:54:48.520Z,94.40
2023-05-05T19:57:15.612Z,94.20
2023-05-05T20:02:11.439Z,94.20
2023-05-05T20:07:05.299Z,93.70
2023-05-05T20:09:32.030Z,94.10
2023-05-05T20:11:59.211Z,93.70
2023-05-05T20:16:52.896Z,93.40
2023-05-05T20:19:20.180Z,93.90
2023-05-05T20:21:46.877Z,93.90
2023-05-05T20:24:13.780Z,93.90
2023-05-05T20:29:07.262Z,98.40
2023-05-05T20:31:34.523Z,98.60
2023-05-05T20:34:01.175Z,93.80
2023-05-05T20:36:28.566Z,93.90
2023-05-05T20:38:55.225Z,94.20
2023-05-05T20:41:21.785Z,93.80
2023-05-05T20:43:48.516Z,93.80
2023-05-05T20:46:15.703Z,93.90
2023-05-05T20:48:43.214Z,94.00
2023-05-05T20:51:09.903Z,94.10
2023-05-05T20:53:37.321Z,94.00
2023-05-05T20:56:05.748Z,94.00
2023-05-05T21:03:27.354Z,94.00
2023-05-05T21:05:54.237Z,94.30
2023-05-05T21:08:20.943Z,94.20
2023-05-05T21:10:48.240Z,94.40
2023-05-05T21:13:14.941Z,94.60
2023-05-05T21:15:41.728Z,94.50
2023-05-05T21:18:08.453Z,94.60
2023-05-05T21:20:35.120Z,94.40
2023-05-05T21:23:01.701Z,94.80
2023-05-05T21:25:29.892Z,94.50
2023-05-05T21:27:57.112Z,94.70
2023-05-05T21:30:24.038Z,94.70
2023-05-05T21:32:51.625Z,94.70
2023-05-05T21:35:18.512Z,94.70
2023-05-05T21:37:45.224Z,94.90
2023-05-05T21:40:13.059Z,94.70
2023-05-05T21:42:40.614Z,94.80
2023-05-05T21:45:09.899Z,95.10
2023-05-05T21:47:36.674Z,94.80
2023-05-05T21:50:03.491Z,99.70
2023-05-05T21:52:30.120Z,95.10
2023-05-05T21:57:23.810Z,99.90
2023-05-05T21:59:50.640Z,95.90
2023-05-05T22:02:17.916Z,95.60
2023-05-05T22:04:47.664Z,96.10
2023-05-05T22:09:41.317Z,95.50
2023-05-05T22:12:07.966Z,95.70
2023-05-05T22:14:34.541Z,96.10
2023-05-05T22:17:01.133Z,95.90
2023-05-05T22:19:28.384Z,95.60
2023-05-05T22:21:56.735Z,96.50
2023-05-05T22:26:50.268Z,95.50
2023-05-05T22:29:16.913Z,95.80
2023-05-05T22:31:43.517Z,96.30
2023-05-05T22:34:10.889Z,96.20
2023-05-05T22:36:41.709Z,99.90
2023-05-05T22:39:09.025Z,97.10
2023-05-05T22:41:35.901Z,97.40
2023-05-05T22:44:02.540Z,97.80
2023-05-05T22:46:29.174Z,98.10
2023-05-05T22:48:55.958Z,98.30
2023-05-05T22:51:22.932Z,98.70
2023-05-05T22:53:50.378Z,99.50
2023-05-05T22:56:16.962Z,99.80
2023-05-05T23:01:12.654Z,99.90
2023-05-05T23:03:39.427Z,99.90
2023-05-05T23:06:06.240Z,99.90
2023-05-05T23:11:00.821Z,99.90
2023-05-05T23:13:27.516Z,99.90
2023-05-05T23:15:54.117Z,99.90
2023-05-05T23:18:20.735Z,99.90
2023-05-05T23:20:47.344Z,99.90
2023-05-05T23:23:13.991Z,99.90
2023-05-05T23:25:40.585Z,99.90
2023-05-05T23:28:07.890Z,99.90
2023-05-05T23:30:35.898Z,99.90
2023-05-05T23:33:03.256Z,99.90
2023-05-05T23:35:29.944Z,99.90
2023-05-05T23:40:24.087Z,99.90
2023-05-05T23:42:50.690Z,99.90
2023-05-05T23:45:19.460Z,99.90
2023-05-05T23:47:46.338Z,99.90
2023-05-05T23:52:41.034Z,99.90
2023-05-05T23:55:09.422Z,99.90
2023-05-05T23:57:36.498Z,99.90
